Time;durP1;ratioP1;P1;durP2;ratioP2;P2;SDS_P1;SDS_P2;PMS_P1;PMS_P2;Temp;Humidity;BMP_temperature;BMP_pressure;BME280_temperature;BME280_humidity;BME280_pressure;Samples;Min_cycle;Max_cycle;Signal;HPM_P1;HPM_P2
2022/06/30 00:02:03;;;;;;;1.15;0.60;;;22.90;53.00;;;;;;7371052;19;20020;-83
2022/06/30 00:04:31;;;;;;;;;;;22.70;53.10;;;;;;7375936;19;20074;-83
2022/06/30 00:07:00;;;;;;;2.83;0.90;;;22.80;53.40;;;;;;7369701;19;19994;-84
2022/06/30 00:09:28;;;;;;;2.15;0.70;;;22.70;53.40;;;;;;7369183;19;20085;-84
2022/06/30 00:11:57;;;;;;;1.70;0.70;;;22.70;53.50;;;;;;7368799;19;20443;-84
2022/06/30 00:14:26;;;;;;;3.15;0.90;;;22.70;53.50;;;;;;7389519;19;20081;-84
2022/06/30 00:16:54;;;;;;;2.25;0.80;;;22.70;53.60;;;;;;7369072;19;20114;-85
2022/06/30 00:19:26;;;;;;;2.03;0.73;;;22.60;53.60;;;;;;7366121;19;20023;-84
2022/06/30 00:21:54;;;;;;;2.33;0.80;;;22.60;53.60;;;;;;7369921;19;20022;-85
2022/06/30 00:24:23;;;;;;;5.50;1.10;;;22.70;53.70;;;;;;7367793;19;20086;-84
2022/06/30 00:26:52;;;;;;;2.75;0.70;;;22.60;53.80;;;;;;7369043;19;20038;-84
2022/06/30 00:29:21;;;;;;;1.95;0.80;;;22.70;53.80;;;;;;7394859;19;20026;-84
2022/06/30 00:31:49;;;;;;;2.90;0.93;;;22.70;53.80;;;;;;7367611;19;20150;-84
2022/06/30 00:34:18;;;;;;;4.40;1.05;;;22.70;53.70;;;;;;7371893;19;20490;-84
2022/06/30 00:36:49;;;;;;;3.45;1.00;;;22.70;53.60;;;;;;7376403;19;20010;-85
2022/06/30 00:39:18;;;;;;;;;;;22.70;53.60;;;;;;7384565;19;20090;-84
2022/06/30 00:41:46;;;;;;;3.20;0.70;;;22.80;53.60;;;;;;7407666;19;20002;-84
2022/06/30 00:44:15;;;;;;;5.30;1.10;;;22.80;53.60;;;;;;7376843;19;20062;-84
2022/06/30 00:46:44;;;;;;;1.65;0.82;;;22.80;53.70;;;;;;7375088;19;20080;-84
2022/06/30 00:49:13;;;;;;;3.10;0.90;;;22.80;53.60;;;;;;7374138;19;20081;-84
2022/06/30 00:51:42;;;;;;;4.45;1.00;;;22.80;53.60;;;;;;7376932;19;20114;-83
2022/06/30 00:54:14;;;;;;;1.58;0.88;;;22.70;53.50;;;;;;7378946;19;20036;-83
2022/06/30 00:56:47;;;;;;;2.67;0.80;;;22.60;53.60;;;;;;7397244;19;20101;-84
2022/06/30 00:59:18;;;;;;;2.08;0.90;;;22.60;53.70;;;;;;7372329;19;20011;-83
2022/06/30 01:01:48;;;;;;;2.10;0.70;;;22.60;53.80;;;;;;7372519;19;20117;-84
2022/06/30 01:04:18;;;;;;;1.80;0.88;;;22.50;53.80;;;;;;7374296;19;20010;-84
2022/06/30 01:06:47;;;;;;;2.83;0.98;;;22.40;53.80;;;;;;7373301;19;20010;-84
2022/06/30 01:12:41;;;;;;;4.53;1.05;;;22.40;54.00;;;;;;7373527;19;20017;-84
2022/06/30 01:14:51;;;;;;;3.25;1.10;;;22.40;54.20;;;;;;7395434;19;20018;-84
2022/06/30 01:17:19;;;;;;;3.15;0.90;;;22.40;53.90;;;;;;7376836;19;20011;-85
2022/06/30 01:19:55;;;;;;;3.05;1.13;;;22.40;54.50;;;;;;7375288;19;20018;-84
2022/06/30 01:22:26;;;;;;;2.17;0.90;;;22.30;53.90;;;;;;7373845;19;20025;-84
2022/06/30 01:24:55;;;;;;;;;;;22.30;54.10;;;;;;7373745;19;20023;-84
2022/06/30 01:27:23;;;;;;;1.50;0.60;;;22.30;54.10;;;;;;7371396;19;20234;-84
2022/06/30 01:29:53;;;;;;;2.38;0.90;;;22.30;53.80;;;;;;7372631;19;20590;-83
2022/06/30 01:32:22;;;;;;;3.80;1.00;;;22.30;53.80;;;;;;7394129;19;20042;-83
2022/06/30 01:34:50;;;;;;;2.28;0.90;;;22.30;53.90;;;;;;7371858;19;20007;-84
2022/06/30 01:37:19;;;;;;;1.63;0.70;;;22.30;54.00;;;;;;7373756;19;20019;-84
2022/06/30 01:39:50;;;;;;;2.60;1.20;;;22.30;54.00;;;;;;7379481;19;20015;-84
2022/06/30 01:42:20;;;;;;;4.05;1.10;;;22.30;54.00;;;;;;7386212;19;20018;-83
2022/06/30 01:44:49;;;;;;;5.53;1.25;;;22.30;54.10;;;;;;7402206;19;20021;-83
2022/06/30 01:47:18;;;;;;;2.28;0.80;;;22.30;54.30;;;;;;7373289;19;20483;-83
2022/06/30 01:49:46;;;;;;;2.03;0.95;;;22.20;54.30;;;;;;7372420;19;20021;-83
2022/06/30 01:52:15;;;;;;;1.58;1.00;;;22.30;54.30;;;;;;7371759;19;20018;-83
2022/06/30 01:54:44;;;;;;;1.77;0.90;;;22.30;54.30;;;;;;7372297;19;20014;-83
2022/06/30 01:57:15;;;;;;;2.88;1.10;;;22.30;54.30;;;;;;7371210;19;20052;-83
2022/06/30 01:59:44;;;;;;;;;;;22.30;54.20;;;;;;7392892;19;20011;-83
2022/06/30 02:02:12;;;;;;;4.93;1.52;;;22.30;54.30;;;;;;7372449;19;20317;-83
2022/06/30 02:04:51;;;;;;;7.15;1.85;;;22.20;54.40;;;;;;7370800;19;20019;-83
2022/06/30 02:07:20;;;;;;;5.28;1.30;;;22.20;54.80;;;;;;7371818;19;20079;-84
2022/06/30 02:09:50;;;;;;;3.03;1.10;;;22.10;55.50;;;;;;7372583;19;20026;-83
2022/06/30 02:15:06;;;;;;;3.22;1.02;;;22.20;54.90;;;;;;7371127;19;20018;-84
2022/06/30 02:17:35;;;;;;;5.40;1.30;;;22.20;55.10;;;;;;7391402;19;20078;-84
2022/06/30 02:20:04;;;;;;;5.07;1.60;;;22.20;55.10;;;;;;7369451;19;20167;-84
2022/06/30 02:22:33;;;;;;;4.55;2.00;;;22.20;55.00;;;;;;7371252;19;20010;-83
2022/06/30 02:25:01;;;;;;;4.75;1.58;;;22.20;55.20;;;;;;7369854;19;20098;-84
2022/06/30 02:27:33;;;;;;;4.80;1.55;;;22.20;55.30;;;;;;7371800;19;20395;-84
2022/06/30 02:30:02;;;;;;;5.15;1.70;;;22.10;55.40;;;;;;7369449;19;20038;-83
2022/06/30 02:32:31;;;;;;;5.57;1.70;;;22.10;55.50;;;;;;7393479;19;20027;-84
2022/06/30 02:34:59;;;;;;;6.15;1.33;;;22.00;55.60;;;;;;7374622;19;20484;-84
2022/06/30 02:37:28;;;;;;;3.45;1.27;;;22.00;55.60;;;;;;7373361;19;20322;-84
2022/06/30 02:39:57;;;;;;;7.57;1.50;;;22.00;55.70;;;;;;7372963;19;20085;-84
2022/06/30 02:42:26;;;;;;;4.95;1.63;;;22.00;55.60;;;;;;7372580;19;20029;-84
2022/06/30 02:44:57;;;;;;;7.43;1.52;;;22.00;55.60;;;;;;7379908;19;20105;-82
2022/06/30 02:47:31;;;;;;;;;;;22.00;55.70;;;;;;7400233;19;20498;-83
2022/06/30 02:50:00;;;;;;;3.88;1.40;;;22.10;55.70;;;;;;7373424;19;19931;-84
2022/06/30 02:52:28;;;;;;;7.63;1.70;;;22.10;55.50;;;;;;7372765;19;20022;-83
2022/06/30 02:54:57;;;;;;;5.18;1.80;;;22.10;55.30;;;;;;7387266;19;20011;-83
2022/06/30 02:57:26;;;;;;;5.05;1.55;;;22.10;55.40;;;;;;7399353;19;20010;-84
2022/06/30 02:59:58;;;;;;;7.60;1.58;;;22.10;55.40;;;;;;7398259;19;20010;-83
2022/06/30 03:02:26;;;;;;;2.22;1.40;;;22.10;55.40;;;;;;7402230;19;20018;-84
2022/06/30 03:04:55;;;;;;;3.83;1.42;;;22.00;55.60;;;;;;7378425;19;20018;-83
2022/06/30 03:07:26;;;;;;;8.60;1.63;;;22.00;55.60;;;;;;7375042;19;20015;-84
2022/06/30 03:09:55;;;;;;;6.68;1.50;;;22.00;55.80;;;;;;7374991;19;20022;-82
2022/06/30 03:12:24;;;;;;;8.07;1.77;;;22.00;55.70;;;;;;7372631;19;20010;-82
2022/06/30 03:14:52;;;;;;;5.75;1.50;;;22.00;55.70;;;;;;7371277;19;20014;-79
2022/06/30 03:17:24;;;;;;;5.72;1.65;;;22.00;55.70;;;;;;7395198;19;20031;-82
2022/06/30 03:19:52;;;;;;;;;;;22.00;56.20;;;;;;7367426;19;20402;-83
2022/06/30 03:22:21;;;;;;;7.13;1.67;;;22.00;55.60;;;;;;7378687;19;20287;-82
2022/06/30 03:24:50;;;;;;;5.03;1.75;;;22.00;55.60;;;;;;7378030;19;20066;-82
2022/06/30 03:27:18;;;;;;;8.23;1.98;;;22.00;55.80;;;;;;7377076;19;20087;-82
2022/06/30 03:29:47;;;;;;;8.60;1.88;;;22.00;55.70;;;;;;7394527;19;20102;-82
2022/06/30 03:32:18;;;;;;;6.43;1.98;;;21.90;55.70;;;;;;7373867;19;20047;-82
2022/06/30 03:34:49;;;;;;;8.82;1.80;;;21.90;55.60;;;;;;7379577;19;20006;-82
2022/06/30 03:37:18;;;;;;;4.88;1.88;;;21.90;55.70;;;;;;7380311;19;20502;-82
2022/06/30 03:39:46;;;;;;;6.80;1.52;;;21.80;55.70;;;;;;7376604;19;20026;-82
2022/06/30 03:42:15;;;;;;;5.93;1.58;;;21.80;55.80;;;;;;7380636;19;20063;-82
2022/06/30 03:44:46;;;;;;;7.38;1.83;;;21.80;55.90;;;;;;7400861;19;20046;-82
2022/06/30 03:47:15;;;;;;;5.78;1.92;;;21.80;55.70;;;;;;7382075;19;20019;-82
2022/06/30 03:49:43;;;;;;;8.80;2.10;;;21.90;55.50;;;;;;7384343;19;20017;-82
2022/06/30 03:52:15;;;;;;;7.20;1.80;;;21.80;55.60;;;;;;7378490;19;20014;-84
2022/06/30 03:54:44;;;;;;;5.90;2.10;;;21.70;55.80;;;;;;7372326;19;20749;-82
2022/06/30 03:57:13;;;;;;;7.72;2.05;;;21.80;56.00;;;;;;7370622;19;20024;-82
2022/06/30 03:59:41;;;;;;;6.70;1.90;;;21.80;55.80;;;;;;7396054;19;20074;-82
2022/06/30 04:02:10;;;;;;;8.63;2.10;;;21.80;55.70;;;;;;7371541;19;20027;-82
2022/06/30 04:04:39;;;;;;;12.00;2.45;;;21.70;56.00;;;;;;7371664;19;20399;-82
2022/06/30 04:07:11;;;;;;;12.48;2.22;;;21.60;56.50;;;;;;7370236;19;20097;-82
2022/06/30 04:09:43;;;;;;;4.57;2.15;;;21.60;57.10;;;;;;7372861;19;20482;-81
2022/06/30 04:12:12;;;;;;;6.43;2.00;;;21.50;57.20;;;;;;7375022;19;20723;-82
2022/06/30 04:14:41;;;;;;;9.45;2.47;;;21.40;57.70;;;;;;7403098;19;20018;-82
2022/06/30 04:17:10;;;;;;;7.18;1.90;;;21.40;58.60;;;;;;7378119;19;20026;-82
2022/06/30 04:19:39;;;;;;;4.93;1.70;;;21.40;59.00;;;;;;7374157;19;20006;-81
2022/06/30 04:22:08;;;;;;;5.45;2.03;;;21.40;59.50;;;;;;7375128;19;20093;-82
2022/06/30 04:24:37;;;;;;;6.13;2.05;;;21.40;59.00;;;;;;7374545;19;20014;-81
2022/06/30 04:27:09;;;;;;;10.93;2.47;;;21.50;59.10;;;;;;7372475;19;20021;-81
2022/06/30 04:29:38;;;;;;;8.75;2.30;;;21.40;58.70;;;;;;7394617;19;20093;-82
2022/06/30 04:34:48;;;;;;;11.18;2.70;;;21.50;60.30;;;;;;7375062;19;20019;-83
2022/06/30 04:37:17;;;;;;;9.95;2.42;;;21.50;61.40;;;;;;7375899;19;20018;-83
2022/06/30 04:39:46;;;;;;;8.52;2.38;;;21.60;60.90;;;;;;7375045;19;20015;-83
2022/06/30 04:42:15;;;;;;;5.68;2.05;;;21.60;61.30;;;;;;7375264;19;20010;-82
2022/06/30 04:44:44;;;;;;;7.78;2.58;;;21.60;61.60;;;;;;7396891;19;20019;-81
2022/06/30 04:47:13;;;;;;;7.25;2.30;;;21.60;60.70;;;;;;7374936;19;20018;-81
2022/06/30 04:49:42;;;;;;;6.50;2.28;;;21.60;61.40;;;;;;7375371;19;20014;-81
2022/06/30 04:52:10;;;;;;;9.57;2.55;;;21.60;61.30;;;;;;7380550;19;20077;-82
2022/06/30 04:54:39;;;;;;;8.60;2.92;;;21.50;61.10;;;;;;7382851;19;20020;-82
2022/06/30 04:57:08;;;;;;;7.43;2.20;;;21.60;62.00;;;;;;7380810;19;20070;-82
2022/06/30 04:59:40;;;;;;;7.63;2.50;;;21.50;61.50;;;;;;7395734;19;20081;-82
2022/06/30 05:02:08;;;;;;;5.97;2.30;;;21.60;62.00;;;;;;7374644;19;20117;-82
2022/06/30 05:04:37;;;;;;;11.07;2.22;;;21.60;62.10;;;;;;7376877;19;20014;-82
2022/06/30 05:07:06;;;;;;;9.02;2.40;;;21.60;62.50;;;;;;7375854;19;20025;-83
2022/06/30 05:09:35;;;;;;;9.95;2.47;;;21.60;60.80;;;;;;7377362;19;20094;-82
2022/06/30 05:12:04;;;;;;;9.23;2.65;;;21.60;59.90;;;;;;7377018;19;20444;-82
2022/06/30 05:14:33;;;;;;;6.15;3.05;;;21.50;59.90;;;;;;7398991;19;20094;-83
2022/06/30 05:17:04;;;;;;;7.07;2.60;;;21.40;60.00;;;;;;7377371;19;21136;-82
2022/06/30 05:19:33;;;;;;;8.48;2.92;;;21.40;61.10;;;;;;7376961;19;20029;-83
2022/06/30 05:22:02;;;;;;;12.23;2.92;;;21.50;61.90;;;;;;7373211;19;20311;-83
2022/06/30 05:27:12;;;;;;;12.30;3.05;;;21.50;61.60;;;;;;7374899;19;20011;-83
2022/06/30 05:29:41;;;;;;;6.35;2.40;;;21.50;62.00;;;;;;7398923;19;20654;-83
2022/06/30 05:32:12;;;;;;;16.42;3.22;;;21.50;60.80;;;;;;7372074;19;20115;-82
2022/06/30 05:34:41;;;;;;;16.73;3.25;;;21.60;60.60;;;;;;7372362;19;20018;-82
2022/06/30 05:37:10;;;;;;;8.40;2.47;;;21.50;60.60;;;;;;7373973;19;20572;-82
2022/06/30 05:39:39;;;;;;;10.30;2.47;;;21.50;59.80;;;;;;7374166;19;20077;-83
2022/06/30 05:42:08;;;;;;;5.75;2.47;;;21.50;60.50;;;;;;7371977;19;20015;-83
2022/06/30 05:44:37;;;;;;;10.40;3.00;;;21.60;60.80;;;;;;7396075;19;20090;-82
2022/06/30 05:47:06;;;;;;;10.13;2.70;;;21.60;61.40;;;;;;7371658;19;20014;-82
2022/06/30 05:49:37;;;;;;;12.02;2.92;;;21.60;61.00;;;;;;7371818;19;20002;-82
2022/06/30 05:52:07;;;;;;;12.13;2.65;;;21.60;60.40;;;;;;7374682;19;20042;-82
2022/06/30 05:54:35;;;;;;;8.35;2.55;;;21.60;60.70;;;;;;7380484;19;20063;-82
2022/06/30 05:57:04;;;;;;;9.30;2.92;;;21.50;60.70;;;;;;7388334;19;20031;-82
2022/06/30 05:59:34;;;;;;;11.85;2.90;;;21.50;61.40;;;;;;7403421;19;20007;-82
2022/06/30 06:02:03;;;;;;;10.02;2.50;;;21.50;61.80;;;;;;7375113;19;20086;-81
2022/06/30 06:04:32;;;;;;;7.53;2.45;;;21.50;61.90;;;;;;7374497;19;20031;-82
2022/06/30 06:07:03;;;;;;;8.85;2.42;;;21.50;61.50;;;;;;7378275;19;20017;-82
2022/06/30 06:09:32;;;;;;;8.57;2.65;;;21.50;61.40;;;;;;7373966;19;20395;-82
2022/06/30 06:12:01;;;;;;;10.35;3.35;;;21.50;61.20;;;;;;7372111;19;20014;-81
2022/06/30 06:14:30;;;;;;;9.48;3.47;;;21.50;62.00;;;;;;7392088;19;20024;-81
2022/06/30 06:16:59;;;;;;;12.93;3.20;;;21.60;62.00;;;;;;7371662;19;20013;-82
2022/06/30 06:19:27;;;;;;;8.40;3.20;;;21.70;62.00;;;;;;7367619;19;20050;-82
2022/06/30 06:21:56;;;;;;;9.90;3.42;;;21.70;61.90;;;;;;7370877;19;20093;-85
2022/06/30 06:24:27;;;;;;;11.13;3.90;;;21.70;61.70;;;;;;7371074;19;20429;-85
2022/06/30 06:26:56;;;;;;;;;;;21.70;61.80;;;;;;7374768;19;20502;-85
2022/06/30 06:29:25;;;;;;;11.90;3.50;;;21.80;62.30;;;;;;7397226;19;19918;-86
2022/06/30 06:31:54;;;;;;;13.48;3.20;;;21.80;62.10;;;;;;7369924;19;20014;-85
2022/06/30 06:34:22;;;;;;;13.25;3.53;;;21.80;61.60;;;;;;7372463;19;20738;-85
2022/06/30 06:36:51;;;;;;;10.68;3.55;;;21.70;60.40;;;;;;7372000;19;20014;-87
2022/06/30 06:39:20;;;;;;;13.00;3.47;;;21.70;60.20;;;;;;7376450;19;20022;-87
2022/06/30 06:41:51;;;;;;;13.68;3.70;;;21.60;60.70;;;;;;7404618;19;20490;-86
2022/06/30 06:44:20;;;;;;;7.22;3.40;;;21.60;60.90;;;;;;7382397;19;20024;-87
2022/06/30 06:46:49;;;;;;;10.70;3.55;;;21.60;61.40;;;;;;7377688;19;20014;-87
2022/06/30 06:49:18;;;;;;;10.13;3.90;;;21.60;61.00;;;;;;7379337;19;20039;-85
2022/06/30 06:51:46;;;;;;;9.90;3.28;;;21.60;60.90;;;;;;7389588;19;20023;-86
2022/06/30 06:54:15;;;;;;;11.38;3.55;;;21.60;61.40;;;;;;7403958;19;20003;-84
2022/06/30 06:56:44;;;;;;;8.32;3.78;;;21.60;60.50;;;;;;7427109;19;20023;-86
2022/06/30 06:59:16;;;;;;;12.73;4.28;;;21.60;60.40;;;;;;7403977;19;20030;-86
2022/06/30 07:01:45;;;;;;;9.30;3.97;;;21.50;60.20;;;;;;7400397;19;20002;-86
2022/06/30 07:04:13;;;;;;;10.25;3.80;;;21.50;61.20;;;;;;7380609;19;20015;-81
2022/06/30 07:06:43;;;;;;;9.70;3.30;;;21.40;62.00;;;;;;7375666;19;20084;-82
2022/06/30 07:09:11;;;;;;;9.85;3.92;;;21.50;62.30;;;;;;7374992;19;20436;-81
2022/06/30 07:11:40;;;;;;;9.27;3.70;;;21.40;61.40;;;;;;7397371;19;20118;-82
2022/06/30 07:14:09;;;;;;;7.65;3.30;;;21.40;61.50;;;;;;7376288;19;20025;-81
2022/06/30 07:16:40;;;;;;;8.48;3.70;;;21.40;62.20;;;;;;7377321;19;20013;-81
2022/06/30 07:19:09;;;;;;;;;;;21.30;62.80;;;;;;7379775;19;20014;-81
2022/06/30 07:21:37;;;;;;;9.40;3.92;;;21.30;62.20;;;;;;7380322;19;19982;-81
2022/06/30 07:24:06;;;;;;;12.25;4.10;;;21.20;63.90;;;;;;7385422;19;20023;-83
2022/06/30 07:26:35;;;;;;;6.32;3.40;;;21.20;63.50;;;;;;7411725;19;20437;-81
2022/06/30 07:29:04;;;;;;;16.38;4.13;;;21.10;62.40;;;;;;7391635;19;20333;-81
2022/06/30 07:31:33;;;;;;;11.45;4.05;;;21.10;62.50;;;;;;7391468;19;20028;-81
2022/06/30 07:34:04;;;;;;;8.82;4.03;;;21.00;63.10;;;;;;7397502;19;20450;-80
2022/06/30 07:36:33;;;;;;;14.27;3.55;;;21.00;64.90;;;;;;7398372;19;20018;-80
2022/06/30 07:39:01;;;;;;;11.13;4.00;;;21.00;64.30;;;;;;7391755;19;20028;-82
2022/06/30 07:41:32;;;;;;;11.00;3.63;;;21.00;64.60;;;;;;7420391;19;20022;-83
2022/06/30 07:44:01;;;;;;;16.67;3.63;;;21.00;64.30;;;;;;7401263;19;20031;-81
2022/06/30 07:46:30;;;;;;;12.27;3.65;;;21.00;64.10;;;;;;7391785;19;20027;-81
2022/06/30 07:48:58;;;;;;;12.20;3.72;;;21.10;65.00;;;;;;7388132;19;20028;-81
2022/06/30 07:51:30;;;;;;;6.82;3.30;;;21.10;64.40;;;;;;7392964;19;20022;-80
2022/06/30 07:53:59;;;;;;;7.57;3.10;;;21.00;63.70;;;;;;7391554;19;20011;-79
2022/06/30 07:56:28;;;;;;;10.25;3.78;;;21.00;64.40;;;;;;7403232;19;20038;-81
2022/06/30 07:58:56;;;;;;;7.13;3.20;;;21.00;64.60;;;;;;7384298;19;20021;-80
2022/06/30 08:01:25;;;;;;;17.90;3.30;;;21.00;63.70;;;;;;7383235;19;20006;-80
2022/06/30 08:03:54;;;;;;;10.43;3.30;;;21.00;64.90;;;;;;7385224;19;20018;-80
2022/06/30 08:06:24;;;;;;;10.00;3.00;;;21.00;65.30;;;;;;7383598;19;20531;-80
2022/06/30 08:08:55;;;;;;;14.15;3.50;;;21.00;65.10;;;;;;7391112;19;20023;-79
2022/06/30 08:11:24;;;;;;;10.73;3.47;;;21.00;64.40;;;;;;7402982;19;20090;-80
2022/06/30 08:13:53;;;;;;;8.95;4.07;;;20.80;63.10;;;;;;7381401;19;20021;-82
2022/06/30 08:16:21;;;;;;;9.65;3.55;;;20.80;64.90;;;;;;7381000;19;20025;-81
2022/06/30 08:18:50;;;;;;;10.52;4.13;;;20.80;65.80;;;;;;7381691;19;20034;-79
2022/06/30 08:21:19;;;;;;;10.10;4.38;;;20.80;65.40;;;;;;7386856;19;20054;-79
2022/06/30 08:23:47;;;;;;;10.75;4.00;;;20.80;65.30;;;;;;7415382;19;20015;-80
2022/06/30 08:26:19;;;;;;;10.00;3.85;;;20.80;65.50;;;;;;7378993;19;20027;-80
2022/06/30 08:28:47;;;;;;;8.68;2.75;;;20.80;65.50;;;;;;7378957;19;20017;-80
2022/06/30 08:31:16;;;;;;;9.13;2.33;;;20.80;65.20;;;;;;7379010;19;20006;-79
2022/06/30 08:33:47;;;;;;;11.15;2.42;;;20.60;63.20;;;;;;7375786;19;20007;-79
2022/06/30 08:36:16;;;;;;;9.65;2.47;;;20.50;63.40;;;;;;7377057;19;20011;-80
2022/06/30 08:38:44;;;;;;;6.75;2.50;;;20.30;62.90;;;;;;7398835;19;20017;-79
2022/06/30 08:43:59;;;;;;;;;;;20.20;65.90;;;;;;7377050;19;20018;-78
2022/06/30 08:46:30;;;;;;;8.80;2.45;;;20.30;66.10;;;;;;7375963;19;19990;-78
2022/06/30 08:49:00;;;;;;;7.15;2.13;;;20.30;67.50;;;;;;7375032;19;20028;-79
2022/06/30 08:51:31;;;;;;;6.15;2.33;;;20.40;67.80;;;;;;7377309;19;20027;-79
2022/06/30 08:54:03;;;;;;;7.93;2.53;;;20.30;68.00;;;;;;7373481;19;20090;-79
2022/06/30 08:56:34;;;;;;;12.18;2.50;;;20.30;67.30;;;;;;7398603;19;20011;-80
2022/06/30 08:59:06;;;;;;;8.68;2.40;;;20.30;68.80;;;;;;7374594;19;20021;-79
2022/06/30 09:01:36;;;;;;;8.38;2.40;;;20.30;70.10;;;;;;7374989;19;20007;-80
2022/06/30 09:04:06;;;;;;;10.18;2.05;;;20.30;69.90;;;;;;7376287;19;20006;-80
2022/06/30 09:06:34;;;;;;;9.68;2.72;;;20.30;71.10;;;;;;7378432;19;20037;-79
2022/06/30 09:09:03;;;;;;;7.95;2.80;;;20.40;70.60;;;;;;7378463;19;20325;-80
2022/06/30 09:11:49;;;;;;;10.18;2.65;;;20.40;71.40;;;;;;7396711;19;20082;-80
2022/06/30 09:14:40;;;;;;;12.30;2.58;;;20.50;71.80;;;;;;7375684;19;20007;-80
2022/06/30 09:17:10;;;;;;;13.80;2.92;;;20.50;71.20;;;;;;7375765;19;20010;-79
2022/06/30 09:19:52;;;;;;;13.95;2.40;;;20.60;71.70;;;;;;7375206;19;20658;-79
2022/06/30 09:22:23;;;;;;;7.30;2.70;;;20.60;70.20;;;;;;7373172;19;20822;-80
2022/06/30 09:24:59;;;;;;;;;;;20.60;71.60;;;;;;7375632;19;20443;-79
2022/06/30 09:27:29;;;;;;;9.68;2.55;;;20.70;72.30;;;;;;7372589;19;20340;-79
2022/06/30 09:30:04;;;;;;;4.75;2.28;;;20.70;71.30;;;;;;7371994;19;20447;-79
2022/06/30 09:32:33;;;;;;;7.07;2.70;;;20.70;71.10;;;;;;7394266;19;20719;-80
2022/06/30 09:35:12;;;;;;;11.27;2.67;;;20.70;71.90;;;;;;7374092;19;20078;-79
2022/06/30 09:37:41;;;;;;;7.85;2.60;;;20.70;72.20;;;;;;7373253;19;20105;-80
2022/06/30 09:40:13;;;;;;;5.18;2.15;;;20.80;71.20;;;;;;7375644;19;20158;-80
2022/06/30 09:42:43;;;;;;;;;;;20.70;70.60;;;;;;7375468;19;20016;-80
2022/06/30 09:45:16;;;;;;;9.05;2.92;;;20.80;71.40;;;;;;7374733;19;19937;-81
2022/06/30 09:47:56;;;;;;;10.75;2.63;;;20.80;71.20;;;;;;7396138;19;20530;-79
2022/06/30 09:50:25;;;;;;;15.07;3.00;;;20.70;70.30;;;;;;7373523;19;20457;-79
2022/06/30 09:53:13;;;;;;;5.68;2.17;;;20.70;70.60;;;;;;7372205;19;20010;-78
2022/06/30 09:55:44;;;;;;;8.27;2.58;;;20.70;70.30;;;;;;7373275;19;20549;-80
2022/06/30 09:58:14;;;;;;;13.73;2.88;;;20.60;71.20;;;;;;7373195;19;20420;-80
2022/06/30 10:00:51;;;;;;;9.65;2.80;;;20.70;72.10;;;;;;7372901;19;20327;-84
2022/06/30 10:03:20;;;;;;;11.07;2.45;;;20.70;72.50;;;;;;7372051;19;20015;-85
2022/06/30 10:05:50;;;;;;;7.47;2.53;;;20.80;71.40;;;;;;7394967;19;20074;-84
2022/06/30 10:08:25;;;;;;;9.05;2.88;;;20.70;72.00;;;;;;7371905;19;20081;-80
2022/06/30 10:10:54;;;;;;;9.70;2.60;;;20.80;72.00;;;;;;7370376;19;20007;-79
2022/06/30 10:13:22;;;;;;;7.47;2.80;;;20.70;69.60;;;;;;7371703;19;20010;-78
2022/06/30 10:15:56;;;;;;;9.02;3.10;;;20.60;69.70;;;;;;7370035;19;20022;-79
2022/06/30 10:18:27;;;;;;;10.73;3.80;;;20.60;71.10;;;;;;7366680;19;20034;-77
2022/06/30 10:20:58;;;;;;;10.75;4.32;;;20.50;70.70;;;;;;7368142;19;20430;-76
2022/06/30 10:23:27;;;;;;;30.80;14.73;;;20.50;70.60;;;;;;7389420;19;20454;-82
2022/06/30 10:25:57;;;;;;;23.10;8.65;;;20.40;71.30;;;;;;7373458;19;20086;-81
2022/06/30 10:28:28;;;;;;;11.65;5.20;;;20.30;71.10;;;;;;7373630;19;20031;-81
2022/06/30 10:31:09;;;;;;;21.80;6.57;;;20.30;71.00;;;;;;7372137;19;20027;-82
2022/06/30 10:33:50;;;;;;;11.30;4.95;;;20.20;72.40;;;;;;7372694;19;20077;-81
2022/06/30 10:36:27;;;;;;;10.95;4.10;;;20.30;73.50;;;;;;7370805;19;20129;-81
2022/06/30 10:39:04;;;;;;;9.65;3.22;;;20.40;74.00;;;;;;7369397;19;20048;-81
2022/06/30 10:41:33;;;;;;;8.88;2.50;;;20.40;74.30;;;;;;7394045;19;20015;-81
2022/06/30 10:44:16;;;;;;;6.40;2.20;;;20.50;73.40;;;;;;7374005;19;20094;-81
2022/06/30 10:47:10;;;;;;;6.20;1.98;;;20.40;72.40;;;;;;7372801;19;20006;-81
2022/06/30 10:49:55;;;;;;;5.30;2.03;;;20.50;73.10;;;;;;7372384;19;20070;-81
2022/06/30 10:52:27;;;;;;;6.97;2.20;;;20.40;70.90;;;;;;7373753;19;20014;-81
2022/06/30 10:55:06;;;;;;;11.68;2.80;;;20.50;70.80;;;;;;7372871;19;20078;-81
2022/06/30 10:58:06;;;;;;;11.70;2.75;;;20.40;71.00;;;;;;7370427;19;20014;-81
2022/06/30 11:00:46;;;;;;;8.27;1.98;;;20.40;72.20;;;;;;7372430;19;20086;-82
2022/06/30 11:03:59;;;;;;;6.13;2.22;;;20.40;71.50;;;;;;7368856;19;20811;-82
2022/06/30 11:06:58;;;;;;;7.15;2.67;;;20.40;72.80;;;;;;7373099;19;20085;-82
2022/06/30 11:10:05;;;;;;;6.47;2.28;;;20.50;74.50;;;;;;7372738;19;20050;-82
2022/06/30 11:13:01;;;;;;;4.88;2.13;;;20.70;74.70;;;;;;7373487;19;20035;-82
2022/06/30 11:15:54;;;;;;;7.10;2.05;;;20.70;72.50;;;;;;7369230;19;20042;-82
2022/06/30 11:18:25;;;;;;;7.50;2.22;;;20.70;71.60;;;;;;7365433;19;20076;-82
2022/06/30 11:20:54;;;;;;;7.13;2.67;;;20.70;70.30;;;;;;7378491;19;20028;-81
2022/06/30 11:23:24;;;;;;;5.60;1.90;;;20.70;71.40;;;;;;7394817;19;20014;-81
2022/06/30 11:28:41;;;;;;;5.20;2.45;;;20.60;71.50;;;;;;7374019;19;20014;-83
2022/06/30 11:31:25;;;;;;;4.53;1.80;;;20.60;73.30;;;;;;7372438;19;20014;-82
2022/06/30 11:33:56;;;;;;;4.97;1.90;;;20.70;71.20;;;;;;7372248;19;20028;-82
2022/06/30 11:36:25;;;;;;;5.82;2.00;;;20.70;71.20;;;;;;7373228;19;20469;-83
2022/06/30 11:38:58;;;;;;;5.32;2.10;;;20.80;70.80;;;;;;7380481;19;20018;-82
2022/06/30 11:44:15;;;;;;;5.53;2.10;;;20.60;70.40;;;;;;7372052;19;20018;-81
2022/06/30 11:46:58;;;;;;;7.95;2.28;;;20.60;68.80;;;;;;7370057;19;20356;-82
2022/06/30 11:49:29;;;;;;;8.27;1.70;;;20.60;69.70;;;;;;7370364;19;20014;-82
2022/06/30 11:51:59;;;;;;;5.65;1.50;;;20.60;69.50;;;;;;7373073;19;20318;-82
2022/06/30 11:54:30;;;;;;;4.45;1.45;;;20.70;68.00;;;;;;7372629;19;20089;-82
2022/06/30 11:57:00;;;;;;;;;;;20.80;68.20;;;;;;7372759;19;20039;-81
2022/06/30 11:59:31;;;;;;;4.18;1.60;;;21.00;68.10;;;;;;7393634;19;19923;-83
2022/06/30 12:02:06;;;;;;;4.22;1.50;;;21.00;69.40;;;;;;7373556;19;20014;-84
2022/06/30 12:04:36;;;;;;;6.95;1.75;;;21.10;70.00;;;;;;7371428;19;20022;-83
2022/06/30 12:07:05;;;;;;;6.22;1.52;;;21.30;69.20;;;;;;7374269;19;20022;-83
2022/06/30 12:09:35;;;;;;;2.97;1.40;;;21.20;70.90;;;;;;7371441;19;20025;-84
2022/06/30 12:12:05;;;;;;;4.78;1.60;;;21.30;71.60;;;;;;7371221;19;20010;-83
2022/06/30 12:14:39;;;;;;;6.70;1.20;;;21.40;71.90;;;;;;7392776;19;20066;-82
2022/06/30 12:17:09;;;;;;;5.60;1.55;;;21.70;66.40;;;;;;7369104;19;20039;-82
2022/06/30 12:19:38;;;;;;;3.85;1.40;;;21.80;65.80;;;;;;7370528;19;20011;-84
2022/06/30 12:22:10;;;;;;;6.13;1.48;;;21.70;64.80;;;;;;7373591;19;20015;-84
2022/06/30 12:24:40;;;;;;;7.30;2.78;;;21.60;66.50;;;;;;7372108;19;20442;-84
2022/06/30 12:27:09;;;;;;;8.07;2.53;;;21.60;67.00;;;;;;7371542;19;20040;-83
2022/06/30 12:29:41;;;;;;;6.90;2.17;;;21.40;65.10;;;;;;7394872;19;20018;-85
2022/06/30 12:32:10;;;;;;;;;;;21.30;63.90;;;;;;7381085;19;20019;-85
2022/06/30 12:34:51;;;;;;;3.55;1.52;;;21.20;66.10;;;;;;7382928;19;19922;-85
2022/06/30 12:37:29;;;;;;;6.32;1.77;;;21.10;65.80;;;;;;7390975;19;20042;-85
2022/06/30 12:39:59;;;;;;;6.10;1.70;;;21.10;68.50;;;;;;7386235;19;20015;-87
2022/06/30 12:42:28;;;;;;;4.15;1.42;;;21.10;68.80;;;;;;7379657;19;20022;-86
2022/06/30 12:45:00;;;;;;;7.05;1.60;;;21.20;69.60;;;;;;7381264;19;20090;-88
2022/06/30 12:47:32;;;;;;;;;;;21.20;67.20;;;;;;7400098;19;20094;-87
2022/06/30 12:50:22;;;;;;;4.30;1.70;;;21.40;69.40;;;;;;7377877;19;19958;-85
2022/06/30 12:52:51;;;;;;;4.82;1.50;;;21.30;66.80;;;;;;7376955;19;20014;-83
2022/06/30 12:55:20;;;;;;;5.57;1.63;;;21.30;66.10;;;;;;7376770;19;20022;-83
2022/06/30 12:57:50;;;;;;;4.28;1.58;;;21.40;66.80;;;;;;7375783;19;20014;-83
2022/06/30 13:00:22;;;;;;;3.90;1.40;;;21.40;69.10;;;;;;7377590;19;20007;-84
2022/06/30 13:02:51;;;;;;;;;;;21.40;67.20;;;;;;7400065;19;20022;-84
2022/06/30 13:05:20;;;;;;;4.65;1.60;;;21.50;68.40;;;;;;7374766;19;19926;-85
2022/06/30 13:07:54;;;;;;;6.43;1.50;;;21.50;68.10;;;;;;7377480;19;20397;-85
2022/06/30 13:11:04;;;;;;;5.35;1.70;;;21.60;68.80;;;;;;7378973;19;20034;-86
2022/06/30 13:13:12;;;;;;;4.97;1.58;;;21.60;68.90;;;;;;7378328;19;20081;-84
2022/06/30 13:15:43;;;;;;;6.95;1.77;;;21.80;70.70;;;;;;7378505;19;20010;-84
2022/06/30 13:18:12;;;;;;;;;;;21.90;63.80;;;;;;7377852;19;20046;-84
2022/06/30 13:20:40;;;;;;;5.03;1.73;;;21.90;66.40;;;;;;7397909;19;20658;-85
2022/06/30 13:23:09;;;;;;;5.78;1.70;;;21.90;68.50;;;;;;7375942;19;20740;-84
2022/06/30 13:25:38;;;;;;;6.63;1.95;;;21.90;67.80;;;;;;7378158;19;20019;-85
2022/06/30 13:28:07;;;;;;;5.15;1.63;;;22.00;66.10;;;;;;7377812;19;20078;-84